Time;durP1;ratioP1;P1;durP2;ratioP2;P2;SDS_P1;SDS_P2;PMS_P1;PMS_P2;Temp;Humidity;BMP_temperature;BMP_pressure;BME280_temperature;BME280_humidity;BME280_pressure;Samples;Min_cycle;Max_cycle;Signal;HPM_P1;HPM_P2
2021/01/17 00:03:04;;;;;;;8.07;3.25;;;0.60;99.90;;;;;;10368190;28;20038;-52
2021/01/17 00:08:26;;;;;;;18.58;4.00;;;0.70;99.90;;;;;;10391549;28;20030;-52
2021/01/17 00:13:46;;;;;;;10.10;3.25;;;0.60;99.90;;;;;;10371147;28;20045;-52
2021/01/17 00:19:07;;;;;;;14.00;5.90;;;0.60;99.90;;;;;;10399094;28;20131;-52
2021/01/17 00:24:28;;;;;;;28.48;4.18;;;0.70;99.90;;;;;;10392585;28;20033;-51
2021/01/17 00:29:49;;;;;;;18.10;5.13;;;0.80;99.90;;;;;;10394276;28;20530;-51
2021/01/17 00:35:10;;;;;;;13.98;3.80;;;0.90;99.90;;;;;;10366088;28;20057;-52
2021/01/17 00:40:31;;;;;;;15.73;5.18;;;0.70;99.90;;;;;;10361484;28;20040;-51
2021/01/17 00:45:52;;;;;;;16.00;4.18;;;0.80;99.90;;;;;;10360727;28;20049;-52
2021/01/17 00:51:13;;;;;;;12.15;5.47;;;0.70;99.90;;;;;;10399355;28;20409;-51
2021/01/17 00:56:35;;;;;;;14.23;5.57;;;0.70;99.90;;;;;;10380968;28;20045;-51
2021/01/17 01:01:56;;;;;;;17.35;3.72;;;0.70;99.90;;;;;;10362897;28;20045;-52
2021/01/17 01:07:17;;;;;;;13.38;3.20;;;0.80;99.90;;;;;;10395640;28;20052;-51
2021/01/17 01:12:38;;;;;;;23.13;4.50;;;0.70;99.90;;;;;;10369862;28;20026;-52
2021/01/17 01:17:59;;;;;;;17.42;3.53;;;0.70;99.90;;;;;;10387332;28;20036;-52
2021/01/17 01:23:20;;;;;;;20.92;6.45;;;0.80;99.90;;;;;;10395618;28;20064;-51
2021/01/17 01:28:41;;;;;;;22.42;4.90;;;0.80;99.90;;;;;;10396915;28;20040;-52
2021/01/17 01:34:03;;;;;;;12.43;5.15;;;0.80;99.90;;;;;;10369619;28;20038;-51
2021/01/17 01:39:24;;;;;;;12.77;4.55;;;0.80;99.90;;;;;;10386055;28;20465;-50
2021/01/17 01:44:45;;;;;;;18.25;4.88;;;0.80;99.90;;;;;;10357118;28;20056;-51
2021/01/17 01:50:07;;;;;;;11.20;4.22;;;0.80;99.90;;;;;;10365505;28;20100;-51
2021/01/17 01:55:29;;;;;;;11.48;3.72;;;0.80;99.90;;;;;;10364265;28;20050;-51
2021/01/17 02:00:50;;;;;;;13.52;3.50;;;0.80;99.90;;;;;;10363660;28;20046;-51
2021/01/17 02:06:11;;;;;;;13.63;4.13;;;0.90;99.90;;;;;;10376831;28;20033;-50
2021/01/17 02:12:09;;;;;;;16.65;3.35;;;0.90;99.90;;;;;;10386119;28;20042;-51
2021/01/17 02:17:33;;;;;;;9.65;3.33;;;0.90;99.90;;;;;;10365637;28;20048;-50
2021/01/17 02:22:59;;;;;;;15.43;4.78;;;0.80;99.90;;;;;;10362953;28;20064;-51
2021/01/17 02:28:21;;;;;;;13.10;4.40;;;0.90;99.90;;;;;;10375841;28;20038;-50
2021/01/17 02:33:45;;;;;;;14.73;3.08;;;1.00;99.90;;;;;;10363899;28;20482;-51
2021/01/17 02:39:16;;;;;;;14.90;4.22;;;0.90;99.90;;;;;;10397108;28;20038;-50
2021/01/17 02:44:37;;;;;;;13.32;3.10;;;1.00;99.90;;;;;;10363412;28;20100;-50
2021/01/17 02:49:59;;;;;;;20.70;6.78;;;1.00;99.90;;;;;;10375205;28;20168;-50
2021/01/17 02:55:21;;;;;;;10.15;4.28;;;1.10;99.90;;;;;;10400784;28;20043;-50
2021/01/17 03:00:45;;;;;;;18.90;5.45;;;1.00;99.90;;;;;;10361296;28;20113;-50
2021/01/17 03:06:08;;;;;;;12.45;4.82;;;1.10;99.90;;;;;;10374379;28;20030;-49
2021/01/17 03:11:29;;;;;;;17.00;3.67;;;1.10;99.90;;;;;;10388770;28;20029;-49
2021/01/17 03:16:50;;;;;;;15.00;4.40;;;1.20;99.90;;;;;;10361893;28;20061;-49
2021/01/17 03:22:10;;;;;;;9.68;3.70;;;1.20;99.90;;;;;;10370993;28;20127;-49
2021/01/17 03:27:32;;;;;;;13.80;5.70;;;1.20;99.90;;;;;;10401954;28;20048;-49
2021/01/17 03:32:52;;;;;;;15.95;5.30;;;1.10;99.90;;;;;;10375381;28;20069;-48
2021/01/17 03:38:13;;;;;;;9.73;4.55;;;1.20;99.90;;;;;;10368295;28;20069;-49
2021/01/17 03:43:34;;;;;;;11.20;3.67;;;1.20;99.90;;;;;;10365731;28;20042;-48
2021/01/17 03:48:55;;;;;;;6.75;4.20;;;1.30;99.90;;;;;;10364267;28;20033;-49
2021/01/17 03:54:16;;;;;;;17.48;4.90;;;1.30;99.90;;;;;;10375097;28;20026;-49
2021/01/17 03:59:37;;;;;;;10.43;3.95;;;1.30;99.90;;;;;;10377696;28;20034;-48
2021/01/17 04:04:58;;;;;;;11.95;4.10;;;1.40;99.90;;;;;;10360555;28;20116;-49
2021/01/17 04:10:19;;;;;;;19.67;4.68;;;1.50;99.90;;;;;;10362583;28;20030;-49
2021/01/17 04:15:40;;;;;;;14.15;4.03;;;1.40;99.90;;;;;;10357739;28;20030;-49
2021/01/17 04:21:01;;;;;;;12.70;4.35;;;1.50;99.90;;;;;;10362664;28;20041;-49
2021/01/17 04:26:22;;;;;;;11.05;3.13;;;1.50;99.90;;;;;;10362886;28;20500;-49
2021/01/17 04:31:44;;;;;;;11.02;3.33;;;1.50;99.90;;;;;;10398092;28;20474;-49
2021/01/17 04:37:05;;;;;;;10.85;3.47;;;1.50;99.90;;;;;;10398467;28;20492;-50
2021/01/17 04:42:31;;;;;;;11.73;3.13;;;1.50;99.90;;;;;;10359424;28;20061;-50
2021/01/17 04:47:52;;;;;;;10.98;3.95;;;1.60;99.90;;;;;;10372950;28;20037;-50
2021/01/17 04:53:15;;;;;;;11.45;3.75;;;1.60;99.90;;;;;;10388700;28;20537;-51
2021/01/17 04:58:42;;;;;;;10.70;2.55;;;1.60;99.90;;;;;;10357184;28;20478;-51
2021/01/17 05:04:31;;;;;;;8.93;3.75;;;1.60;99.90;;;;;;10357610;28;20030;-51
2021/01/17 05:10:03;;;;;;;13.90;2.87;;;1.60;99.90;;;;;;10382604;28;20034;-50
2021/01/17 05:15:24;;;;;;;9.77;2.85;;;1.60;99.90;;;;;;10356480;28;20462;-51
2021/01/17 05:20:45;;;;;;;8.25;2.78;;;1.70;99.90;;;;;;10359068;28;20042;-51
2021/01/17 05:26:06;;;;;;;9.93;3.22;;;1.70;99.90;;;;;;10376779;28;20441;-51
2021/01/17 05:31:29;;;;;;;9.25;2.95;;;1.70;99.90;;;;;;10371296;28;20415;-52
2021/01/17 05:37:07;;;;;;;8.70;3.65;;;1.70;99.90;;;;;;10378247;28;20577;-51
2021/01/17 05:42:34;;;;;;;9.50;3.13;;;1.80;99.90;;;;;;10363722;28;20054;-51
2021/01/17 05:48:00;;;;;;;10.68;5.43;;;1.80;99.90;;;;;;10376975;28;20121;-51
2021/01/17 05:53:25;;;;;;;12.10;3.30;;;1.90;99.90;;;;;;10404224;28;20072;-51
2021/01/17 05:58:46;;;;;;;10.30;3.17;;;1.90;99.90;;;;;;10385683;28;20188;-52
2021/01/17 06:04:13;;;;;;;13.40;4.28;;;1.90;99.90;;;;;;10372034;28;20648;-52
2021/01/17 06:09:37;;;;;;;11.50;5.05;;;1.90;99.90;;;;;;10381418;28;20041;-52
2021/01/17 06:15:04;;;;;;;11.40;4.40;;;1.90;99.90;;;;;;10362114;28;20030;-52
2021/01/17 06:20:26;;;;;;;12.48;3.72;;;2.10;99.90;;;;;;10365696;28;20045;-52
2021/01/17 06:26:01;;;;;;;7.68;3.35;;;2.10;99.90;;;;;;10382545;28;20034;-52
2021/01/17 06:31:28;;;;;;;8.82;2.30;;;2.10;99.90;;;;;;10363655;28;20033;-53
2021/01/17 06:36:49;;;;;;;9.52;3.85;;;2.00;99.90;;;;;;10362790;28;20063;-53
2021/01/17 06:42:12;;;;;;;10.38;3.45;;;2.10;99.90;;;;;;10373936;28;20053;-53
2021/01/17 06:47:35;;;;;;;7.53;4.25;;;2.20;99.90;;;;;;10369325;28;20702;-53
2021/01/17 06:52:56;;;;;;;18.05;3.88;;;2.30;99.90;;;;;;10365633;28;20035;-53
2021/01/17 06:58:18;;;;;;;6.38;2.45;;;2.30;99.90;;;;;;10369280;28;20033;-53
2021/01/17 07:03:51;;;;;;;9.80;3.70;;;2.30;99.90;;;;;;10372115;28;20032;-52
2021/01/17 07:09:41;;;;;;;5.93;2.83;;;2.30;99.90;;;;;;10381731;28;20037;-53
2021/01/17 07:15:06;;;;;;;;;;;2.40;99.90;;;;;;10353463;28;20034;-53
2021/01/17 07:20:29;;;;;;;9.95;2.45;;;2.50;99.90;;;;;;10369712;28;19948;-53
2021/01/17 07:25:50;;;;;;;4.60;1.92;;;2.60;99.90;;;;;;10360628;28;20034;-53
2021/01/17 07:31:18;;;;;;;5.30;1.15;;;2.70;99.90;;;;;;10364158;28;20033;-53
2021/01/17 07:36:49;;;;;;;4.45;1.40;;;2.70;99.90;;;;;;10360210;28;20130;-53
2021/01/17 07:42:10;;;;;;;5.18;1.55;;;2.70;99.90;;;;;;10380050;28;20374;-54
2021/01/17 07:47:35;;;;;;;5.93;1.00;;;2.70;99.90;;;;;;10360381;28;20037;-53
2021/01/17 07:52:57;;;;;;;2.00;1.58;;;2.70;99.90;;;;;;10363871;28;20034;-53
2021/01/17 07:58:19;;;;;;;7.55;1.85;;;2.70;99.90;;;;;;10387463;28;20478;-54
2021/01/17 08:03:40;;;;;;;2.15;0.95;;;2.70;99.90;;;;;;10362345;28;20436;-54
2021/01/17 08:09:05;;;;;;;2.80;0.75;;;2.70;99.90;;;;;;10367864;28;20033;-54
2021/01/17 08:14:30;;;;;;;1.13;0.93;;;2.70;99.90;;;;;;10363276;28;20036;-54
2021/01/17 08:19:53;;;;;;;4.55;0.70;;;2.70;99.90;;;;;;10358564;28;20700;-54
2021/01/17 08:25:35;;;;;;;1.88;0.75;;;2.80;99.90;;;;;;10360413;28;20120;-54
2021/01/17 08:30:56;;;;;;;6.70;1.60;;;2.80;99.90;;;;;;10369617;28;20121;-54
2021/01/17 08:36:27;;;;;;;1.55;0.40;;;2.90;99.90;;;;;;10363423;28;20548;-54
2021/01/17 08:41:48;;;;;;;2.42;0.85;;;3.00;99.90;;;;;;10364812;28;20107;-54
2021/01/17 08:47:20;;;;;;;3.22;0.60;;;3.20;99.90;;;;;;10364474;28;20029;-55
2021/01/17 08:52:41;;;;;;;1.10;0.40;;;3.30;99.90;;;;;;10357129;28;20038;-54
2021/01/17 08:58:03;;;;;;;3.72;0.68;;;3.30;99.90;;;;;;10371905;28;20056;-55
2021/01/17 09:03:28;;;;;;;2.38;0.40;;;3.40;99.90;;;;;;10397804;28;20104;-55
2021/01/17 09:08:49;;;;;;;3.80;1.13;;;3.50;99.90;;;;;;10364095;28;20045;-54
2021/01/17 09:14:29;;;;;;;1.65;0.60;;;3.50;99.90;;;;;;10358209;28;20455;-54
2021/01/17 09:19:50;;;;;;;0.73;0.57;;;3.60;99.90;;;;;;10371773;28;20046;-55
2021/01/17 09:25:12;;;;;;;1.10;0.70;;;3.60;99.90;;;;;;10358835;28;20113;-54
2021/01/17 09:30:33;;;;;;;0.73;0.22;;;3.70;99.90;;;;;;10397083;28;20124;-54
2021/01/17 09:35:54;;;;;;;2.75;0.90;;;3.80;99.90;;;;;;10357192;28;20080;-54
2021/01/17 09:41:24;;;;;;;1.85;0.95;;;4.00;99.90;;;;;;10366945;28;20169;-54
2021/01/17 09:46:45;;;;;;;;;;;4.10;99.90;;;;;;10377550;28;20065;-55
2021/01/17 09:52:11;;;;;;;0.93;0.38;;;4.20;99.90;;;;;;10366772;28;19985;-54
2021/01/17 09:57:37;;;;;;;1.75;0.50;;;4.40;99.90;;;;;;10365819;28;20065;-55
2021/01/17 10:03:06;;;;;;;1.92;0.60;;;4.40;99.90;;;;;;10366171;28;20087;-55
2021/01/17 10:08:27;;;;;;;1.17;0.40;;;4.50;99.90;;;;;;10391408;28;20096;-55
2021/01/17 10:13:48;;;;;;;1.63;0.88;;;4.70;99.90;;;;;;10368690;28;20514;-55
2021/01/17 10:19:09;;;;;;;1.38;0.40;;;4.90;99.90;;;;;;10404294;28;20175;-55
2021/01/17 10:24:32;;;;;;;2.35;0.95;;;5.40;99.90;;;;;;10370244;28;20058;-55
2021/01/17 10:29:53;;;;;;;3.42;0.75;;;5.80;99.90;;;;;;10386416;28;20585;-55
2021/01/17 10:35:20;;;;;;;5.47;0.77;;;6.00;99.90;;;;;;10389744;28;20580;-55
2021/01/17 10:40:43;;;;;;;2.88;1.00;;;6.10;99.90;;;;;;10365053;28;20663;-55
2021/01/17 10:46:17;;;;;;;9.98;1.23;;;6.00;99.90;;;;;;10362673;28;20453;-56
2021/01/17 10:51:50;;;;;;;3.50;1.00;;;5.90;99.90;;;;;;10380181;28;20541;-55
2021/01/17 10:57:13;;;;;;;3.20;1.42;;;5.90;99.90;;;;;;10374977;28;20041;-56
2021/01/17 11:02:34;;;;;;;9.00;0.98;;;5.90;99.90;;;;;;10388721;28;20052;-56
2021/01/17 11:07:55;;;;;;;2.17;0.60;;;6.00;99.90;;;;;;10360172;28;20030;-56
2021/01/17 11:13:16;;;;;;;1.95;0.73;;;6.20;99.90;;;;;;10362265;28;20088;-56
2021/01/17 11:18:37;;;;;;;1.27;0.57;;;6.70;99.90;;;;;;10361330;28;20474;-55
2021/01/17 11:23:58;;;;;;;6.75;1.58;;;7.90;99.90;;;;;;10399773;28;20053;-56
2021/01/17 11:29:20;;;;;;;1.75;0.90;;;10.10;99.90;;;;;;10366412;28;20079;-56
2021/01/17 11:34:42;;;;;;;6.97;0.43;;;11.80;99.90;;;;;;10379086;28;20049;-56
2021/01/17 11:40:10;;;;;;;2.38;0.82;;;12.40;99.90;;;;;;10365415;28;20030;-56
2021/01/17 11:45:31;;;;;;;2.17;0.40;;;13.20;99.90;;;;;;10360944;28;20525;-56
2021/01/17 11:50:52;;;;;;;3.00;0.63;;;13.70;99.90;;;;;;10361640;28;20442;-56
2021/01/17 11:56:13;;;;;;;2.15;0.30;;;13.70;99.90;;;;;;10399645;28;20428;-56
2021/01/17 12:01:35;;;;;;;1.15;0.40;;;14.00;99.90;;;;;;10384577;28;20124;-55
2021/01/17 12:07:04;;;;;;;7.82;0.80;;;14.40;99.90;;;;;;10361330;28;21056;-56
2021/01/17 12:12:25;;;;;;;3.42;0.65;;;13.80;99.90;;;;;;10375574;28;20509;-55
2021/01/17 12:17:45;;;;;;;2.15;0.70;;;11.70;99.90;;;;;;10397617;28;20045;-55
2021/01/17 12:23:06;;;;;;;5.95;0.40;;;10.30;99.90;;;;;;10390121;28;20065;-55
2021/01/17 12:28:27;;;;;;;1.60;0.38;;;9.60;99.90;;;;;;10375286;28;20041;-55
2021/01/17 12:33:49;;;;;;;4.55;0.75;;;9.30;99.90;;;;;;10368593;28;20073;-55
2021/01/17 12:39:12;;;;;;;1.15;0.40;;;9.90;99.90;;;;;;10357683;28;20426;-56
2021/01/17 12:44:33;;;;;;;6.53;0.68;;;10.80;99.90;;;;;;10358924;28;20073;-55
2021/01/17 12:49:54;;;;;;;3.42;0.82;;;10.80;99.90;;;;;;10372574;28;20044;-55
2021/01/17 12:55:15;;;;;;;8.85;1.15;;;9.80;99.90;;;;;;10366539;28;20053;-55
2021/01/17 13:00:36;;;;;;;0.68;0.45;;;9.20;99.90;;;;;;10370991;28;20638;-55
2021/01/17 13:05:57;;;;;;;9.70;0.90;;;9.30;99.90;;;;;;10397892;28;20030;-55
2021/01/17 13:11:18;;;;;;;1.85;0.63;;;9.50;99.90;;;;;;10362915;28;20030;-55
2021/01/17 13:16:39;;;;;;;6.43;1.45;;;9.10;99.90;;;;;;10361668;28;20401;-55
2021/01/17 13:22:00;;;;;;;2.55;0.47;;;8.70;99.90;;;;;;10358806;28;20136;-55
2021/01/17 13:27:21;;;;;;;3.35;0.50;;;8.40;99.90;;;;;;10363752;28;20682;-55
2021/01/17 13:32:41;;;;;;;2.22;0.47;;;8.10;99.90;;;;;;10371085;28;20054;-54
2021/01/17 13:38:02;;;;;;;4.03;0.73;;;7.90;99.90;;;;;;10397382;28;20025;-54
2021/01/17 13:43:23;;;;;;;6.28;0.50;;;8.20;99.90;;;;;;10371180;28;20038;-55
2021/01/17 13:48:44;;;;;;;0.90;0.28;;;8.20;99.90;;;;;;10364354;28;20401;-54
2021/01/17 13:54:05;;;;;;;1.15;0.25;;;7.90;99.90;;;;;;10373533;28;20038;-55
2021/01/17 13:59:26;;;;;;;3.75;0.52;;;7.80;99.90;;;;;;10365016;28;20540;-54
2021/01/17 14:04:47;;;;;;;14.90;0.90;;;7.80;99.90;;;;;;10363114;28;20085;-55
2021/01/17 14:10:08;;;;;;;2.58;0.75;;;7.60;99.90;;;;;;10365259;28;20042;-55
2021/01/17 14:15:29;;;;;;;2.47;1.13;;;7.60;99.90;;;;;;10363849;28;20046;-54
2021/01/17 14:20:50;;;;;;;8.70;2.15;;;7.50;99.90;;;;;;10363120;28;20139;-55
2021/01/17 14:26:11;;;;;;;0.40;0.22;;;7.50;99.90;;;;;;10382185;28;20054;-55
2021/01/17 14:31:37;;;;;;;5.07;0.50;;;7.50;99.90;;;;;;10369763;28;20038;-54
2021/01/17 14:36:58;;;;;;;5.03;0.55;;;7.50;99.90;;;;;;10366206;28;20522;-55
2021/01/17 14:42:19;;;;;;;3.00;0.40;;;7.50;99.90;;;;;;10372736;28;20255;-54
2021/01/17 14:47:40;;;;;;;0.93;0.22;;;7.50;99.90;;;;;;10366593;28;20049;-54
2021/01/17 14:53:01;;;;;;;8.30;0.32;;;7.50;99.90;;;;;;10381908;28;21013;-54
2021/01/17 14:58:22;;;;;;;1.08;0.20;;;7.60;99.90;;;;;;10377576;28;20038;-54
2021/01/17 15:03:43;;;;;;;0.10;0.05;;;7.40;99.90;;;;;;10371427;28;20037;-54
2021/01/17 15:09:06;;;;;;;0.57;0.13;;;7.30;99.90;;;;;;10365559;28;20088;-54
2021/01/17 15:14:27;;;;;;;2.25;0.80;;;7.00;99.90;;;;;;10362458;28;20142;-54
2021/01/17 15:19:48;;;;;;;0.90;0.50;;;6.80;99.90;;;;;;10389396;28;20042;-54
2021/01/17 15:25:09;;;;;;;3.10;0.57;;;6.60;99.90;;;;;;10361055;28;20034;-54
2021/01/17 15:30:30;;;;;;;1.00;0.17;;;6.60;99.90;;;;;;10370940;28;20129;-54
2021/01/17 15:35:51;;;;;;;2.10;0.90;;;6.50;99.90;;;;;;10363154;28;20045;-54
2021/01/17 15:41:14;;;;;;;1.77;1.17;;;6.50;99.90;;;;;;10359636;28;20054;-54
2021/01/17 15:46:36;;;;;;;1.27;0.50;;;6.50;99.90;;;;;;10399636;28;20037;-54
2021/01/17 15:51:57;;;;;;;7.90;0.80;;;6.40;99.90;;;;;;10366082;28;20467;-54
2021/01/17 15:57:18;;;;;;;4.72;0.68;;;6.50;99.90;;;;;;10372984;28;20554;-54
2021/01/17 16:02:39;;;;;;;3.55;1.77;;;6.50;99.90;;;;;;10359707;28;20041;-54
2021/01/17 16:08:00;;;;;;;4.55;1.58;;;6.50;99.90;;;;;;10358955;28;20034;-54
2021/01/17 16:13:21;;;;;;;2.47;0.82;;;6.50;99.90;;;;;;10360106;28;20501;-54
2021/01/17 16:18:43;;;;;;;1.08;0.40;;;6.50;99.90;;;;;;10359954;28;20042;-54
2021/01/17 16:24:05;;;;;;;3.35;1.00;;;6.40;99.90;;;;;;10366314;28;20038;-54
2021/01/17 16:29:27;;;;;;;2.10;0.82;;;6.40;99.90;;;;;;10372850;28;20038;-54
2021/01/17 16:34:48;;;;;;;5.55;1.45;;;6.40;99.90;;;;;;10358173;28;20042;-54
2021/01/17 16:40:10;;;;;;;2.33;0.65;;;6.40;99.90;;;;;;10360007;28;20091;-54
2021/01/17 16:45:31;;;;;;;4.25;0.60;;;6.30;99.90;;;;;;10360414;28;20498;-54
2021/01/17 16:50:52;;;;;;;3.10;0.77;;;6.30;99.90;;;;;;10399249;28;20080;-54
2021/01/17 16:56:16;;;;;;;5.10;1.25;;;6.20;99.90;;;;;;10367088;28;20037;-54
2021/01/17 17:01:38;;;;;;;9.05;1.75;;;6.10;99.90;;;;;;10358502;28;20045;-53
2021/01/17 17:07:05;;;;;;;2.90;0.73;;;6.00;99.90;;;;;;10398696;28;20034;-54
2021/01/17 17:12:28;;;;;;;6.05;1.55;;;6.00;99.90;;;;;;10358395;28;20041;-54
2021/01/17 17:17:49;;;;;;;4.95;1.95;;;5.90;99.90;;;;;;10379213;28;20100;-54
2021/01/17 17:23:10;;;;;;;3.40;1.02;;;5.80;99.90;;;;;;10371334;28;20402;-54
2021/01/17 17:28:31;;;;;;;3.78;1.02;;;5.80;99.90;;;;;;10364198;28;20245;-53
2021/01/17 17:33:52;;;;;;;5.30;1.55;;;5.60;99.90;;;;;;10385844;28;20048;-54
2021/01/17 17:39:17;;;;;;;6.93;1.35;;;5.60;99.90;;;;;;10364868;28;20038;-54
2021/01/17 17:44:38;;;;;;;3.03;1.13;;;5.40;99.90;;;;;;10371928;28;20046;-54
2021/01/17 17:49:59;;;;;;;5.03;2.10;;;5.30;99.90;;;;;;10367770;28;20049;-53
2021/01/17 17:55:20;;;;;;;6.60;1.40;;;5.20;99.90;;;;;;10370188;28;20056;-53
2021/01/17 18:00:50;;;;;;;7.97;2.80;;;5.00;99.90;;;;;;10364508;28;20040;-54
2021/01/17 18:06:11;;;;;;;9.63;1.83;;;4.90;99.90;;;;;;10363860;28;20048;-54
2021/01/17 18:11:33;;;;;;;4.13;1.83;;;4.80;99.90;;;;;;10364341;28;20629;-54
2021/01/17 18:16:54;;;;;;;5.55;2.78;;;4.70;99.90;;;;;;10365698;28;20141;-53
2021/01/17 18:22:15;;;;;;;2.25;1.25;;;4.60;99.90;;;;;;10375412;28;20874;-54
2021/01/17 18:27:38;;;;;;;15.65;1.65;;;4.50;99.90;;;;;;10362876;28;20488;-53
2021/01/17 18:32:59;;;;;;;7.38;1.77;;;4.50;99.90;;;;;;10374825;28;20033;-53
2021/01/17 18:38:20;;;;;;;4.40;1.15;;;4.50;99.90;;;;;;10393327;28;20037;-53
2021/01/17 18:43:41;;;;;;;2.65;0.75;;;4.40;99.90;;;;;;10396098;28;20042;-53
2021/01/17 18:49:02;;;;;;;4.20;0.93;;;4.40;99.90;;;;;;10362465;28;20382;-53
2021/01/17 18:54:23;;;;;;;10.15;1.20;;;4.40;99.90;;;;;;10364295;28;20138;-54
2021/01/17 18:59:44;;;;;;;3.10;1.17;;;4.40;99.90;;;;;;10361457;28;20026;-53
2021/01/17 19:05:06;;;;;;;8.45;2.30;;;4.30;99.90;;;;;;10401914;28;20028;-54
2021/01/17 19:10:27;;;;;;;6.43;2.55;;;4.30;99.90;;;;;;10362259;28;20022;-54
2021/01/17 19:15:47;;;;;;;2.58;0.80;;;4.30;99.90;;;;;;10373208;28;20034;-54
2021/01/17 19:21:08;;;;;;;2.17;1.13;;;4.50;99.90;;;;;;10362807;28;20048;-53
2021/01/17 19:26:29;;;;;;;3.08;1.13;;;4.50;99.90;;;;;;10400623;28;20034;-53
2021/01/17 19:31:51;;;;;;;2.28;1.08;;;4.70;99.90;;;;;;10359826;28;20038;-54
2021/01/17 19:37:12;;;;;;;3.05;1.38;;;4.80;99.90;;;;;;10377022;28;20136;-53
2021/01/17 19:42:33;;;;;;;11.52;1.30;;;4.80;99.90;;;;;;10398270;28;20504;-53
2021/01/17 19:47:54;;;;;;;3.38;1.85;;;4.80;99.90;;;;;;10398525;28;20056;-54
2021/01/17 19:53:15;;;;;;;1.55;0.73;;;4.70;99.90;;;;;;10362685;28;20041;-54
2021/01/17 19:58:36;;;;;;;2.53;0.43;;;4.60;99.90;;;;;;10359413;28;20033;-53
2021/01/17 20:03:58;;;;;;;1.95;0.75;;;4.60;99.90;;;;;;10362437;28;20034;-53
2021/01/17 20:09:19;;;;;;;4.63;1.88;;;4.50;99.90;;;;;;10383161;28;20022;-54
2021/01/17 20:14:41;;;;;;;3.67;1.20;;;4.50;99.90;;;;;;10358251;28;20080;-54
2021/01/17 20:20:03;;;;;;;1.55;0.52;;;4.50;99.90;;;;;;10376689;28;20048;-54
2021/01/17 20:25:24;;;;;;;2.60;0.88;;;4.50;99.90;;;;;;10360066;28;20048;-53
2021/01/17 20:30:45;;;;;;;5.47;0.95;;;4.50;99.90;;;;;;10357439;28;20080;-53
2021/01/17 20:36:06;;;;;;;1.40;0.57;;;4.50;99.90;;;;;;10374235;28;20040;-53
2021/01/17 20:41:29;;;;;;;7.50;1.92;;;4.50;99.90;;;;;;10360213;28;20038;-53
2021/01/17 20:46:50;;;;;;;2.50;0.90;;;4.50;99.90;;;;;;10388004;28;20612;-54
2021/01/17 20:52:11;;;;;;;3.33;1.52;;;4.40;99.90;;;;;;10370710;28;20037;-54
2021/01/17 20:57:33;;;;;;;2.53;1.02;;;4.40;99.90;;;;;;10365101;28;20121;-54
2021/01/17 21:02:54;;;;;;;1.42;0.70;;;4.30;99.90;;;;;;10397997;28;20087;-54
2021/01/17 21:08:15;;;;;;;6.05;0.93;;;4.30;99.90;;;;;;10390612;28;20030;-54
2021/01/17 21:13:37;;;;;;;2.60;0.50;;;4.10;99.90;;;;;;10363160;28;20033;-54
2021/01/17 21:18:58;;;;;;;1.67;0.88;;;4.00;99.90;;;;;;10397485;28;20132;-53
2021/01/17 21:24:19;;;;;;;1.20;0.30;;;3.90;99.90;;;;;;10394353;28;20037;-54
2021/01/17 21:29:40;;;;;;;2.58;0.68;;;3.90;99.90;;;;;;10357239;28;20034;-54
2021/01/17 21:35:03;;;;;;;5.95;1.95;;;3.80;99.90;;;;;;10373778;28;20095;-53
2021/01/17 21:40:24;;;;;;;3.10;1.35;;;3.70;99.90;;;;;;10360219;28;20509;-53
2021/01/17 21:45:45;;;;;;;3.33;0.70;;;3.60;99.90;;;;;;10358878;28;20056;-53
2021/01/17 21:51:06;;;;;;;2.80;0.75;;;3.50;99.90;;;;;;10356787;28;20038;-53
2021/01/17 21:56:27;;;;;;;1.85;0.65;;;3.40;99.90;;;;;;10359278;28;20121;-53
2021/01/17 22:01:48;;;;;;;2.13;1.08;;;3.30;99.90;;;;;;10396202;28;20084;-54
2021/01/17 22:07:09;;;;;;;3.08;0.63;;;3.20;99.90;;;;;;10390124;28;20091;-53
2021/01/17 22:12:41;;;;;;;1.83;0.80;;;3.10;99.90;;;;;;10378729;28;20034;-53
2021/01/17 22:18:02;;;;;;;1.55;0.80;;;3.10;99.90;;;;;;10367459;28;20041;-54
2021/01/17 22:23:23;;;;;;;2.83;0.93;;;3.10;99.90;;;;;;10384910;28;20128;-54
2021/01/17 22:28:45;;;;;;;1.50;0.55;;;3.10;99.90;;;;;;10367215;28;20462;-54
2021/01/17 22:34:06;;;;;;;1.45;0.77;;;3.00;99.90;;;;;;10384786;28;20357;-54
2021/01/17 22:39:26;;;;;;;1.15;0.55;;;3.00;99.90;;;;;;10403709;28;20481;-53
2021/01/17 22:44:47;;;;;;;2.65;1.08;;;3.00;99.90;;;;;;10367206;28;20046;-53
2021/01/17 22:50:10;;;;;;;3.33;1.10;;;3.00;99.90;;;;;;10363294;28;20076;-53
2021/01/17 22:55:31;;;;;;;8.90;0.80;;;3.10;99.90;;;;;;10374532;28;20108;-54
2021/01/17 23:00:52;;;;;;;1.95;0.60;;;3.00;99.90;;;;;;10362905;28;20212;-54
2021/01/17 23:06:20;;;;;;;1.15;0.30;;;3.10;99.90;;;;;;10363458;28;20577;-54
2021/01/17 23:11:41;;;;;;;2.33;0.80;;;3.00;99.90;;;;;;10382488;28;20042;-54
2021/01/17 23:17:02;;;;;;;1.65;0.90;;;2.90;99.90;;;;;;10399143;28;20065;-54
2021/01/17 23:22:23;;;;;;;1.05;0.63;;;2.80;99.90;;;;;;10402557;28;20605;-54
2021/01/17 23:27:44;;;;;;;2.28;0.80;;;2.60;99.90;;;;;;10385658;28;20099;-54
2021/01/17 23:33:05;;;;;;;5.20;0.82;;;2.50;99.90;;;;;;10361972;28;20049;-54
2021/01/17 23:38:27;;;;;;;3.03;1.15;;;2.50;99.90;;;;;;10382832;28;20046;-53
2021/01/17 23:43:50;;;;;;;2.15;0.95;;;2.40;99.90;;;;;;10359887;28;20129;-53
2021/01/17 23:49:11;;;;;;;1.33;0.75;;;2.30;99.90;;;;;;10366648;28;20042;-54
2021/01/17 23:54:32;;;;;;;0.95;0.30;;;2.40;99.90;;;;;;10360078;28;20433;-54
2021/01/17 23:59:52;;;;;;;1.02;0.43;;;2.50;99.90;;;;;;10372048;28;20038;-53
